createdAt,value
2023-03-17T00:01:44.607Z,5.10
2023-03-17T00:04:12.702Z,5.08
2023-03-17T00:06:41.504Z,5.14
2023-03-17T00:09:14.616Z,4.97
2023-03-17T00:11:44.292Z,5.02
2023-03-17T00:14:12.133Z,4.98
2023-03-17T00:16:42.345Z,5.05
2023-03-17T00:19:14.459Z,5.05
2023-03-17T00:21:42.093Z,5.03
2023-03-17T00:24:12.961Z,4.96
2023-03-17T00:26:43.752Z,4.97
2023-03-17T00:29:11.400Z,4.89
2023-03-17T00:31:39.620Z,4.85
2023-03-17T00:34:11.516Z,4.82
2023-03-17T00:36:40.972Z,4.84
2023-03-17T00:41:43.794Z,4.80
2023-03-17T00:44:11.972Z,4.83
2023-03-17T00:46:41.864Z,4.87
2023-03-17T00:51:44.733Z,4.84
2023-03-17T00:54:13.778Z,4.78
2023-03-17T00:56:44.268Z,4.84
2023-03-17T00:59:25.382Z,4.85
2023-03-17T01:01:54.145Z,4.80
2023-03-17T01:04:22.164Z,4.78
2023-03-17T01:06:50.594Z,4.77
2023-03-17T01:09:24.120Z,4.75
2023-03-17T01:11:53.489Z,4.74
2023-03-17T01:14:21.602Z,4.78
2023-03-17T01:16:49.160Z,4.78
2023-03-17T01:19:16.837Z,4.77
2023-03-17T01:21:44.463Z,4.76
2023-03-17T01:24:12.807Z,4.77
2023-03-17T01:26:40.718Z,4.78
2023-03-17T01:29:09.560Z,4.73
2023-03-17T01:31:37.497Z,4.68
2023-03-17T01:34:06.383Z,4.73
2023-03-17T01:36:34.289Z,4.73
2023-03-17T01:39:03.418Z,4.66
2023-03-17T01:41:33.617Z,4.63
2023-03-17T01:44:01.122Z,4.68
2023-03-17T01:46:31.960Z,4.57
2023-03-17T01:49:15.999Z,4.60
2023-03-17T01:51:51.279Z,4.63
2023-03-17T01:54:24.337Z,4.62
2023-03-17T01:56:53.744Z,4.63
2023-03-17T01:59:27.008Z,4.56
2023-03-17T02:02:03.582Z,4.60
2023-03-17T02:04:31.726Z,4.57
2023-03-17T02:07:00.120Z,4.59
2023-03-17T02:09:28.326Z,4.58
2023-03-17T02:11:57.377Z,4.53
2023-03-17T02:14:25.597Z,4.52
2023-03-17T02:16:53.901Z,4.52
2023-03-17T02:19:23.217Z,4.49
2023-03-17T02:21:54.342Z,4.45
2023-03-17T02:24:36.385Z,4.38
2023-03-17T02:27:11.818Z,4.40
2023-03-17T02:29:39.600Z,4.41
2023-03-17T02:32:10.152Z,4.38
2023-03-17T02:34:37.701Z,4.35
2023-03-17T02:37:07.759Z,4.35
2023-03-17T02:39:36.184Z,4.31
2023-03-17T02:42:05.546Z,4.29
2023-03-17T02:44:35.177Z,4.28
2023-03-17T02:47:03.830Z,4.23
2023-03-17T02:49:32.962Z,4.22
2023-03-17T02:52:00.321Z,4.20
2023-03-17T02:54:29.270Z,4.18
2023-03-17T02:56:56.633Z,4.22
2023-03-17T02:59:24.065Z,4.17
2023-03-17T03:01:51.806Z,4.13
2023-03-17T03:04:20.167Z,4.11
2023-03-17T03:06:47.793Z,4.16
2023-03-17T03:09:17.694Z,4.13
2023-03-17T03:11:47.069Z,4.11
2023-03-17T03:14:14.552Z,4.00
2023-03-17T03:16:43.350Z,3.98
2023-03-17T03:19:10.914Z,4.05
2023-03-17T03:21:38.453Z,4.07
2023-03-17T03:24:07.117Z,3.99
2023-03-17T03:26:34.860Z,4.03
2023-03-17T03:29:04.511Z,3.99
2023-03-17T03:31:32.043Z,3.96
2023-03-17T03:33:59.498Z,3.96
2023-03-17T03:36:27.509Z,3.96
2023-03-17T03:38:54.956Z,3.91
2023-03-17T03:41:22.526Z,3.92
2023-03-17T03:43:50.329Z,3.96
2023-03-17T03:46:19.522Z,3.92
2023-03-17T03:48:46.828Z,3.94
2023-03-17T03:51:14.253Z,3.92
2023-03-17T03:53:41.686Z,3.97
2023-03-17T03:56:09.314Z,3.96
2023-03-17T03:58:36.939Z,3.97
2023-03-17T04:01:04.975Z,3.91
2023-03-17T04:03:34.187Z,4.01
2023-03-17T04:06:01.788Z,4.02
2023-03-17T04:08:29.567Z,3.98
2023-03-17T04:10:57.404Z,3.96
2023-03-17T04:13:24.815Z,3.99
2023-03-17T04:15:52.670Z,3.91
2023-03-17T04:18:20.169Z,3.92
2023-03-17T04:20:48.935Z,3.91
2023-03-17T04:23:16.385Z,3.90
2023-03-17T04:25:43.827Z,3.93
2023-03-17T04:28:12.212Z,3.90
2023-03-17T04:30:39.756Z,3.90
2023-03-17T04:33:07.287Z,3.87
2023-03-17T04:35:34.833Z,3.91
2023-03-17T04:38:03.803Z,3.92
2023-03-17T04:40:31.695Z,3.97
2023-03-17T04:42:59.411Z,3.89
2023-03-17T04:45:27.524Z,3.94
2023-03-17T04:47:54.959Z,3.96
2023-03-17T04:50:22.431Z,3.98
2023-03-17T04:52:49.833Z,4.03
2023-03-17T04:55:18.706Z,4.08
2023-03-17T04:57:46.502Z,4.13
2023-03-17T05:00:15.494Z,4.16
2023-03-17T05:02:42.993Z,4.13
2023-03-17T05:05:10.582Z,4.11
2023-03-17T05:07:38.242Z,4.15
2023-03-17T05:10:06.719Z,4.12
2023-03-17T05:12:42.585Z,4.08
2023-03-17T05:15:11.662Z,4.07
2023-03-17T05:17:42.568Z,4.03
2023-03-17T05:20:11.051Z,4.03
2023-03-17T05:22:38.524Z,3.97
2023-03-17T05:25:06.760Z,4.00
2023-03-17T05:27:35.551Z,3.95
2023-03-17T05:30:03.813Z,3.99
2023-03-17T05:32:32.180Z,3.99
2023-03-17T05:34:59.869Z,3.94
2023-03-17T05:37:27.294Z,3.97
2023-03-17T05:39:54.854Z,3.97
2023-03-17T05:42:22.298Z,4.08
2023-03-17T05:44:51.097Z,4.05
2023-03-17T05:47:18.541Z,4.12
2023-03-17T05:49:46.820Z,4.08
2023-03-17T05:52:14.261Z,4.13
2023-03-17T05:54:42.030Z,4.21
2023-03-17T05:57:09.511Z,4.17
2023-03-17T05:59:37.447Z,4.22
2023-03-17T06:02:06.322Z,4.25
2023-03-17T06:04:34.029Z,4.24
2023-03-17T06:07:01.834Z,4.26
2023-03-17T06:09:29.426Z,4.28
2023-03-17T06:11:57.589Z,4.37
2023-03-17T06:14:27.258Z,4.36
2023-03-17T06:16:54.895Z,4.48
2023-03-17T06:19:23.734Z,4.51
2023-03-17T06:21:51.202Z,4.60
2023-03-17T06:24:18.580Z,4.71
2023-03-17T06:26:46.119Z,4.80
2023-03-17T06:29:13.560Z,4.96
2023-03-17T06:31:42.182Z,5.07
2023-03-17T06:34:09.929Z,5.14
2023-03-17T06:36:39.160Z,5.16
2023-03-17T06:39:06.713Z,5.23
2023-03-17T06:41:34.208Z,5.24
2023-03-17T06:44:01.730Z,5.28
2023-03-17T06:46:29.188Z,5.27
2023-03-17T06:48:56.630Z,5.26
2023-03-17T06:51:24.167Z,5.32
2023-03-17T06:53:53.018Z,5.25
2023-03-17T06:56:29.911Z,5.31
2023-03-17T06:58:58.604Z,5.34
2023-03-17T07:01:27.188Z,5.38
2023-03-17T07:03:55.379Z,5.51
2023-03-17T07:06:25.717Z,5.66
2023-03-17T07:08:54.564Z,5.85
2023-03-17T07:11:23.723Z,6.02
2023-03-17T07:13:51.264Z,6.20
2023-03-17T07:16:20.986Z,6.31
2023-03-17T07:18:48.734Z,6.43
2023-03-17T07:21:16.702Z,6.60
2023-03-17T07:23:44.181Z,6.69
2023-03-17T07:26:13.301Z,6.70
2023-03-17T07:28:40.790Z,6.83
2023-03-17T07:31:09.497Z,6.97
2023-03-17T07:33:37.023Z,7.20
2023-03-17T07:36:07.224Z,7.37
2023-03-17T07:38:35.187Z,7.52
2023-03-17T07:41:03.628Z,7.69
2023-03-17T07:43:33.318Z,7.84
2023-03-17T07:46:01.561Z,7.99
2023-03-17T07:48:30.243Z,8.14
2023-03-17T07:50:57.759Z,8.18
2023-03-17T07:53:25.211Z,8.27
2023-03-17T07:55:52.657Z,8.45
2023-03-17T07:58:20.257Z,8.65
2023-03-17T08:00:49.016Z,8.98
2023-03-17T08:03:16.838Z,9.11
2023-03-17T08:05:44.577Z,9.22
2023-03-17T08:08:12.584Z,9.28
2023-03-17T08:10:39.922Z,9.46
2023-03-17T08:13:07.708Z,9.54
2023-03-17T08:15:35.159Z,9.69
2023-03-17T08:18:04.126Z,9.76
2023-03-17T08:20:31.942Z,9.96
2023-03-17T08:22:59.537Z,10.08
2023-03-17T08:25:27.565Z,10.22
2023-03-17T08:27:55.919Z,10.32
2023-03-17T08:30:23.306Z,10.31
2023-03-17T08:32:50.847Z,10.35
2023-03-17T08:35:20.846Z,10.66
2023-03-17T08:37:48.537Z,10.79
2023-03-17T08:40:18.533Z,10.97
2023-03-17T08:42:48.518Z,11.12
2023-03-17T08:45:16.518Z,11.22
2023-03-17T08:47:44.456Z,11.29
2023-03-17T08:50:18.094Z,11.43
2023-03-17T08:52:48.651Z,11.45
2023-03-17T08:55:16.814Z,11.52
2023-03-17T08:57:44.998Z,11.57
2023-03-17T09:00:13.877Z,11.65
2023-03-17T09:02:43.560Z,11.78
2023-03-17T09:05:13.938Z,11.83
2023-03-17T09:07:41.571Z,12.08
2023-03-17T09:10:13.610Z,12.45
2023-03-17T09:12:41.521Z,12.46
2023-03-17T09:15:12.004Z,12.51
2023-03-17T09:17:39.489Z,12.57
2023-03-17T09:20:08.224Z,12.63
2023-03-17T09:22:35.984Z,12.80
2023-03-17T09:25:03.901Z,12.98
2023-03-17T09:27:32.834Z,13.09
2023-03-17T09:30:00.266Z,13.58
2023-03-17T09:32:27.745Z,13.85
2023-03-17T09:34:55.305Z,14.08
2023-03-17T09:37:22.832Z,13.93
2023-03-17T09:39:50.375Z,13.89
2023-03-17T09:42:29.701Z,14.25
2023-03-17T09:45:12.425Z,14.89
2023-03-17T09:48:09.953Z,15.35
2023-03-17T09:50:43.762Z,15.53
2023-03-17T09:53:17.905Z,15.84
2023-03-17T09:55:49.023Z,15.89
2023-03-17T09:58:20.899Z,16.40
2023-03-17T10:00:49.673Z,16.47
2023-03-17T10:03:17.651Z,16.67
2023-03-17T10:05:45.730Z,16.95
2023-03-17T10:08:30.185Z,17.26
2023-03-17T10:11:03.204Z,17.72
2023-03-17T10:13:43.620Z,17.86
2023-03-17T10:16:16.195Z,18.16
2023-03-17T10:18:48.163Z,18.46
2023-03-17T10:21:21.620Z,18.58
2023-03-17T10:23:49.124Z,18.84
2023-03-17T10:26:26.063Z,18.82
2023-03-17T10:28:54.055Z,19.13
2023-03-17T10:31:28.771Z,19.30
2023-03-17T10:33:58.420Z,18.58
2023-03-17T10:36:34.753Z,18.61
2023-03-17T10:39:05.345Z,18.78
2023-03-17T10:41:35.958Z,19.09
2023-03-17T10:44:09.940Z,19.13
2023-03-17T10:46:40.178Z,18.88
2023-03-17T10:49:10.709Z,19.12
2023-03-17T10:51:40.577Z,19.50
2023-03-17T10:54:09.984Z,19.47
2023-03-17T10:56:39.586Z,18.78
2023-03-17T10:59:14.924Z,18.95
2023-03-17T11:01:49.906Z,19.27
2023-03-17T11:04:27.426Z,19.35
2023-03-17T11:06:56.353Z,19.25
2023-03-17T11:09:25.978Z,19.28
2023-03-17T11:12:01.863Z,20.15
2023-03-17T11:14:30.316Z,20.28
2023-03-17T11:17:02.153Z,20.41
2023-03-17T11:19:40.465Z,20.78
2023-03-17T11:22:11.686Z,20.47
2023-03-17T11:24:50.475Z,20.73
2023-03-17T11:27:27.124Z,20.68
2023-03-17T11:30:17.285Z,20.95
2023-03-17T11:32:56.429Z,20.92
2023-03-17T11:35:51.390Z,20.68
2023-03-17T11:38:26.117Z,20.55
2023-03-17T11:41:26.156Z,20.96
2023-03-17T11:44:08.018Z,20.74
2023-03-17T11:46:42.962Z,20.90
2023-03-17T11:49:18.739Z,21.20
2023-03-17T11:52:01.161Z,20.82
2023-03-17T11:54:41.432Z,21.41
2023-03-17T11:57:15.247Z,21.48
2023-03-17T11:59:51.963Z,21.15
2023-03-17T12:02:27.166Z,21.43
2023-03-17T12:05:00.048Z,21.40
2023-03-17T12:07:33.345Z,21.22
2023-03-17T12:10:06.447Z,21.20
2023-03-17T12:12:39.179Z,21.54
2023-03-17T12:15:16.900Z,21.60
2023-03-17T12:17:52.205Z,21.79
2023-03-17T12:20:29.937Z,21.18
2023-03-17T12:23:05.408Z,21.12
2023-03-17T12:25:38.681Z,21.12
2023-03-17T12:28:13.797Z,21.20
2023-03-17T12:30:48.359Z,21.30
2023-03-17T12:33:20.084Z,21.33
2023-03-17T12:35:49.225Z,20.88
2023-03-17T12:38:20.771Z,20.72
2023-03-17T12:41:19.890Z,21.15
2023-03-17T12:44:00.452Z,21.32
2023-03-17T12:46:50.546Z,21.65
2023-03-17T12:50:02.608Z,21.83
2023-03-17T12:52:44.607Z,21.89
2023-03-17T12:55:15.613Z,21.76
2023-03-17T12:57:46.208Z,21.88
2023-03-17T13:00:24.454Z,22.27
2023-03-17T13:03:09.239Z,21.68
2023-03-17T13:05:37.365Z,21.57
2023-03-17T13:08:10.883Z,21.38
2023-03-17T13:10:43.398Z,21.29
2023-03-17T13:13:19.545Z,21.55
2023-03-17T13:15:57.008Z,21.59
2023-03-17T13:18:47.936Z,21.29
2023-03-17T13:21:18.567Z,21.38
2023-03-17T13:23:54.829Z,21.37
2023-03-17T13:26:56.935Z,21.21
2023-03-17T13:29:43.149Z,20.95
2023-03-17T13:32:38.334Z,20.80
2023-03-17T13:35:21.503Z,20.55
2023-03-17T13:38:09.713Z,20.70
2023-03-17T13:40:44.436Z,20.47
2023-03-17T13:43:31.919Z,20.24
2023-03-17T13:46:22.380Z,20.30
2023-03-17T13:48:50.322Z,20.15
2023-03-17T13:51:23.069Z,20.05
2023-03-17T13:53:55.362Z,19.96
2023-03-17T13:56:47.376Z,19.87
2023-03-17T13:59:16.909Z,19.96
2023-03-17T14:01:52.094Z,19.95
2023-03-17T14:04:22.700Z,19.98
2023-03-17T14:06:53.184Z,19.90
2023-03-17T14:09:29.171Z,19.81
2023-03-17T14:12:00.264Z,19.68
2023-03-17T14:14:36.636Z,19.71
2023-03-17T14:17:12.098Z,19.66
2023-03-17T14:19:41.746Z,19.53
2023-03-17T14:22:21.060Z,19.55
2023-03-17T14:24:52.378Z,19.50
2023-03-17T14:27:23.860Z,19.52
2023-03-17T14:29:52.313Z,19.39
2023-03-17T14:32:23.043Z,19.13
2023-03-17T14:34:56.104Z,19.27
2023-03-17T14:37:24.242Z,19.35
2023-03-17T14:39:52.975Z,19.41
2023-03-17T14:42:27.142Z,19.51
2023-03-17T14:45:01.033Z,19.37
2023-03-17T14:47:31.491Z,19.33
2023-03-17T14:50:01.814Z,19.14
2023-03-17T14:52:32.782Z,18.89
2023-03-17T14:55:01.323Z,18.56
2023-03-17T14:57:32.775Z,18.57
2023-03-17T15:00:02.039Z,18.56
2023-03-17T15:02:37.857Z,18.47
2023-03-17T15:05:17.559Z,18.48
2023-03-17T15:07:45.128Z,18.51
2023-03-17T15:10:15.712Z,18.66
2023-03-17T15:12:49.241Z,18.45
2023-03-17T15:15:22.696Z,18.51
2023-03-17T15:17:56.082Z,18.48
2023-03-17T15:20:24.610Z,18.46
2023-03-17T15:22:57.387Z,18.55
2023-03-17T15:25:29.074Z,18.49
2023-03-17T15:27:58.622Z,18.40
2023-03-17T15:30:29.471Z,18.19
2023-03-17T15:33:01.254Z,18.21
2023-03-17T15:35:29.069Z,18.07
2023-03-17T15:37:56.849Z,18.07
2023-03-17T15:40:24.494Z,18.12
2023-03-17T15:42:56.971Z,18.06
2023-03-17T15:45:25.966Z,17.93
2023-03-17T15:47:54.372Z,17.93
2023-03-17T15:50:25.579Z,17.81
2023-03-17T15:52:56.246Z,17.66
2023-03-17T15:55:25.590Z,17.61
2023-03-17T15:57:55.527Z,17.50
2023-03-17T16:00:29.860Z,17.41
2023-03-17T16:03:00.211Z,17.30
2023-03-17T16:05:31.085Z,17.23
2023-03-17T16:07:58.503Z,17.10
2023-03-17T16:10:27.861Z,16.93
2023-03-17T16:12:55.641Z,16.85
2023-03-17T16:15:26.028Z,16.76
2023-03-17T16:17:58.355Z,16.67
2023-03-17T16:20:28.542Z,16.62
2023-03-17T16:23:01.486Z,16.50
2023-03-17T16:25:32.899Z,16.43
2023-03-17T16:28:05.121Z,16.34
2023-03-17T16:30:34.658Z,16.31
2023-03-17T16:33:15.319Z,16.31
2023-03-17T16:35:43.767Z,16.24
2023-03-17T16:38:13.279Z,16.09
2023-03-17T16:40:41.912Z,16.01
2023-03-17T16:43:25.166Z,15.88
2023-03-17T16:45:55.712Z,15.79
2023-03-17T16:48:25.698Z,15.76
2023-03-17T16:50:53.798Z,15.64
2023-03-17T16:53:22.518Z,15.60
2023-03-17T16:55:51.753Z,15.52
2023-03-17T16:58:21.346Z,15.45
2023-03-17T17:00:51.768Z,15.41
2023-03-17T17:03:19.678Z,15.37
2023-03-17T17:05:48.629Z,15.30
2023-03-17T17:08:16.356Z,15.24
2023-03-17T17:10:43.811Z,15.07
2023-03-17T17:13:12.243Z,15.01
2023-03-17T17:15:41.152Z,14.93
2023-03-17T17:18:14.688Z,14.84
2023-03-17T17:20:43.291Z,14.65
2023-03-17T17:23:14.986Z,14.50
2023-03-17T17:25:43.751Z,14.50
2023-03-17T17:28:11.867Z,14.52
2023-03-17T17:30:42.974Z,14.44
2023-03-17T17:33:11.561Z,14.40
2023-03-17T17:35:39.443Z,14.36
2023-03-17T17:38:16.895Z,14.32
2023-03-17T17:40:46.467Z,14.30
2023-03-17T17:43:14.082Z,14.22
2023-03-17T17:45:42.401Z,14.19
2023-03-17T17:48:10.374Z,14.18
2023-03-17T17:50:37.828Z,14.07
2023-03-17T17:53:09.489Z,13.97
2023-03-17T17:55:38.926Z,13.93
2023-03-17T17:58:08.100Z,13.78
2023-03-17T18:00:38.495Z,13.69
2023-03-17T18:03:06.180Z,13.60
2023-03-17T18:05:33.840Z,13.45
2023-03-17T18:08:02.466Z,13.42
2023-03-17T18:10:30.769Z,13.34
2023-03-17T18:12:59.774Z,13.32
2023-03-17T18:15:27.423Z,13.28
2023-03-17T18:17:55.263Z,13.21
2023-03-17T18:20:23.515Z,13.15
2023-03-17T18:22:52.320Z,13.05
2023-03-17T18:25:20.137Z,12.84
2023-03-17T18:27:48.418Z,12.88
2023-03-17T18:30:23.186Z,12.73
2023-03-17T18:32:54.802Z,12.58
2023-03-17T18:35:24.204Z,12.50
2023-03-17T18:37:51.843Z,12.52
2023-03-17T18:40:20.012Z,12.52
2023-03-17T18:42:47.549Z,12.45
2023-03-17T18:45:16.164Z,12.46
2023-03-17T18:47:45.260Z,12.42
2023-03-17T18:50:15.425Z,12.37
2023-03-17T18:52:43.866Z,12.27
2023-03-17T18:55:12.684Z,12.19
2023-03-17T18:57:43.105Z,12.19
2023-03-17T19:00:14.305Z,12.18
2023-03-17T19:02:41.886Z,12.14
2023-03-17T19:05:11.669Z,12.18
2023-03-17T19:07:40.556Z,12.14
2023-03-17T19:10:09.850Z,12.13
2023-03-17T19:12:37.718Z,12.12
2023-03-17T19:15:07.078Z,12.09
2023-03-17T19:17:34.929Z,12.03
2023-03-17T19:20:02.823Z,11.96
2023-03-17T19:22:32.575Z,11.94
2023-03-17T19:25:00.248Z,11.81
2023-03-17T19:27:27.763Z,11.81
2023-03-17T19:29:55.277Z,11.76
2023-03-17T19:32:22.829Z,11.69
2023-03-17T19:34:50.585Z,11.57
2023-03-17T19:37:18.155Z,11.52
2023-03-17T19:39:51.093Z,11.55
2023-03-17T19:42:18.564Z,11.50
2023-03-17T19:44:48.166Z,11.43
2023-03-17T19:47:15.912Z,11.39
2023-03-17T19:49:43.396Z,11.27
2023-03-17T19:52:10.834Z,11.18
2023-03-17T19:54:43.697Z,11.15
2023-03-17T19:57:17.370Z,11.07
2023-03-17T19:59:45.190Z,11.01
2023-03-17T20:02:13.815Z,10.95
2023-03-17T20:04:41.213Z,10.93
2023-03-17T20:07:09.128Z,10.88
2023-03-17T20:09:37.899Z,10.84
2023-03-17T20:12:05.830Z,10.73
2023-03-17T20:14:34.646Z,10.67
2023-03-17T20:17:02.176Z,10.65
2023-03-17T20:19:29.609Z,10.60
2023-03-17T20:21:58.584Z,10.54
2023-03-17T20:24:27.033Z,10.47
2023-03-17T20:26:57.286Z,10.42
2023-03-17T20:29:28.122Z,10.38
2023-03-17T20:31:57.485Z,10.27
2023-03-17T20:34:24.933Z,10.15
2023-03-17T20:36:52.704Z,10.15
2023-03-17T20:39:20.120Z,10.06
2023-03-17T20:41:48.610Z,10.00
2023-03-17T20:44:16.556Z,9.96
2023-03-17T20:46:44.667Z,9.86
2023-03-17T20:49:14.135Z,9.81
2023-03-17T20:51:41.503Z,9.75
2023-03-17T20:54:09.387Z,9.69
2023-03-17T20:56:37.488Z,9.67
2023-03-17T20:59:06.018Z,9.68
2023-03-17T21:01:35.766Z,9.75
2023-03-17T21:04:08.559Z,9.73
2023-03-17T21:06:38.452Z,9.75
2023-03-17T21:09:05.950Z,9.75
2023-03-17T21:11:34.127Z,9.77
2023-03-17T21:14:03.366Z,9.67
2023-03-17T21:16:31.141Z,9.58
2023-03-17T21:18:59.003Z,9.53
2023-03-17T21:21:27.281Z,9.45
2023-03-17T21:23:56.279Z,9.44
2023-03-17T21:26:24.641Z,9.44
2023-03-17T21:28:52.576Z,9.44
2023-03-17T21:31:20.274Z,9.37
2023-03-17T21:33:50.559Z,9.37
2023-03-17T21:36:18.412Z,9.32
2023-03-17T21:38:46.826Z,9.27
2023-03-17T21:41:30.598Z,9.19
2023-03-17T21:43:58.176Z,9.17
2023-03-17T21:46:25.578Z,9.02
2023-03-17T21:48:54.066Z,8.98
2023-03-17T21:51:21.588Z,8.97
2023-03-17T21:53:49.290Z,8.92
2023-03-17T21:56:17.091Z,8.96
2023-03-17T21:59:21.373Z,8.95
2023-03-17T22:01:55.569Z,8.73
2023-03-17T22:04:23.420Z,8.84
2023-03-17T22:06:56.368Z,8.88
2023-03-17T22:09:23.897Z,8.88
2023-03-17T22:11:51.656Z,8.88
2023-03-17T22:14:20.713Z,8.84
2023-03-17T22:16:49.318Z,8.81
2023-03-17T22:19:19.305Z,8.79
2023-03-17T22:21:48.169Z,8.74
2023-03-17T22:24:15.849Z,8.74
2023-03-17T22:26:43.300Z,8.72
2023-03-17T22:29:10.767Z,8.65
2023-03-17T22:31:39.934Z,8.58
2023-03-17T22:34:09.837Z,8.54
2023-03-17T22:36:37.391Z,8.54
2023-03-17T22:39:08.755Z,8.49
2023-03-17T22:41:37.023Z,8.50
2023-03-17T22:44:06.606Z,8.48
2023-03-17T22:46:34.160Z,8.42
2023-03-17T22:49:03.107Z,8.45
2023-03-17T22:51:31.070Z,8.44
2023-03-17T22:53:58.532Z,8.40
2023-03-17T22:56:26.431Z,8.41
2023-03-17T22:58:54.624Z,8.37
2023-03-17T23:01:26.356Z,8.35
2023-03-17T23:03:54.697Z,8.27
2023-03-17T23:06:24.522Z,8.20
2023-03-17T23:08:52.328Z,8.13
2023-03-17T23:11:23.123Z,8.07
2023-03-17T23:13:52.611Z,7.95
2023-03-17T23:16:21.535Z,7.96
2023-03-17T23:18:49.805Z,7.90
2023-03-17T23:21:21.884Z,7.79
2023-03-17T23:23:50.823Z,7.71
2023-03-17T23:26:18.428Z,7.60
2023-03-17T23:28:46.320Z,7.53
2023-03-17T23:31:15.785Z,7.49
2023-03-17T23:33:43.735Z,7.43
2023-03-17T23:36:11.211Z,7.36
2023-03-17T23:38:48.701Z,7.27
2023-03-17T23:41:18.372Z,7.21
2023-03-17T23:43:46.733Z,7.12
2023-03-17T23:46:14.636Z,7.08
2023-03-17T23:48:42.944Z,6.97
2023-03-17T23:51:12.495Z,6.91
2023-03-17T23:53:40.136Z,6.92
2023-03-17T23:56:08.549Z,6.91
2023-03-17T23:58:37.481Z,6.92
